createdAt,value
2023-07-07T00:00:10.315Z,5.20
2023-07-07T00:01:10.307Z,5.00
2023-07-07T00:02:10.322Z,7.90
2023-07-07T00:03:10.311Z,6.50
2023-07-07T00:04:10.392Z,5.50
2023-07-07T00:05:10.263Z,5.50
2023-07-07T00:06:10.314Z,5.80
2023-07-07T00:07:10.247Z,4.10
2023-07-07T00:08:10.224Z,7.10
2023-07-07T00:09:10.283Z,8.60
2023-07-07T00:10:10.263Z,4.40
2023-07-07T00:11:10.179Z,6.10
2023-07-07T00:12:10.170Z,7.30
2023-07-07T00:13:10.160Z,6.10
2023-07-07T00:14:10.155Z,5.60
2023-07-07T00:15:10.211Z,7.20
2023-07-07T00:16:10.183Z,6.20
2023-07-07T00:17:10.222Z,6.40
2023-07-07T00:18:10.108Z,7.00
2023-07-07T00:19:10.086Z,7.00
2023-07-07T00:20:10.060Z,6.10
2023-07-07T00:21:10.161Z,5.20
2023-07-07T00:22:10.135Z,6.60
2023-07-07T00:23:10.032Z,5.50
2023-07-07T00:24:10.058Z,6.80
2023-07-07T00:25:10.064Z,6.20
2023-07-07T00:26:10.104Z,7.80
2023-07-07T00:27:10.010Z,6.20
2023-07-07T00:28:10.004Z,5.60
2023-07-07T00:29:09.979Z,5.90
2023-07-07T00:30:09.981Z,7.80
2023-07-07T00:31:09.974Z,7.00
2023-07-07T00:32:10.022Z,7.40
2023-07-07T00:33:10.038Z,6.10
2023-07-07T00:34:10.042Z,6.50
2023-07-07T00:35:09.914Z,5.10
2023-07-07T00:36:09.982Z,6.60
2023-07-07T00:37:09.984Z,5.00
2023-07-07T00:38:09.908Z,6.80
2023-07-07T00:39:09.874Z,5.10
2023-07-07T00:40:09.893Z,5.40
2023-07-07T00:41:09.929Z,6.30
2023-07-07T00:42:09.855Z,6.40
2023-07-07T00:43:09.837Z,5.00
2023-07-07T00:44:09.817Z,5.30
2023-07-07T00:45:09.838Z,5.20
2023-07-07T00:46:09.929Z,7.50
2023-07-07T00:47:09.787Z,5.40
2023-07-07T00:48:09.916Z,6.70
2023-07-07T00:49:09.808Z,5.10
2023-07-07T00:50:09.758Z,5.30
2023-07-07T00:51:09.755Z,6.50
2023-07-07T00:52:09.839Z,5.70
2023-07-07T00:53:09.721Z,6.80
2023-07-07T00:54:09.794Z,5.60
2023-07-07T00:55:09.729Z,5.80
2023-07-07T00:56:09.693Z,5.40
2023-07-07T00:57:09.696Z,5.80
2023-07-07T00:58:09.715Z,4.80
2023-07-07T00:59:09.662Z,4.50
2023-07-07T01:00:09.742Z,4.90
2023-07-07T01:01:09.693Z,8.00
2023-07-07T01:02:09.813Z,5.50
2023-07-07T01:03:09.718Z,7.30
2023-07-07T01:04:09.703Z,4.70
2023-07-07T01:05:09.709Z,7.90
2023-07-07T01:06:09.631Z,9.20
2023-07-07T01:07:09.605Z,6.60
2023-07-07T01:08:09.666Z,5.70
2023-07-07T01:09:09.605Z,9.00
2023-07-07T01:10:09.566Z,6.80
2023-07-07T01:11:09.552Z,7.30
2023-07-07T01:12:09.612Z,5.10
2023-07-07T01:13:09.542Z,6.20
2023-07-07T01:14:09.591Z,5.70
2023-07-07T01:15:09.593Z,8.00
2023-07-07T01:16:09.541Z,5.20
2023-07-07T01:17:09.513Z,6.40
2023-07-07T01:18:09.570Z,6.80
2023-07-07T01:19:09.488Z,6.10
2023-07-07T01:20:09.469Z,6.00
2023-07-07T01:21:09.463Z,5.80
2023-07-07T01:22:09.540Z,5.40
2023-07-07T01:23:09.508Z,7.30
2023-07-07T01:24:09.506Z,6.50
2023-07-07T01:25:09.407Z,6.70
2023-07-07T01:26:09.413Z,6.10
2023-07-07T01:27:09.395Z,7.30
2023-07-07T01:28:09.386Z,7.00
2023-07-07T01:29:09.468Z,5.40
2023-07-07T01:30:09.418Z,6.40
2023-07-07T01:31:09.365Z,6.40
2023-07-07T01:32:09.353Z,7.70
2023-07-07T01:33:09.424Z,7.70
2023-07-07T01:34:09.322Z,6.50
2023-07-07T01:35:09.395Z,6.20
2023-07-07T01:36:09.317Z,6.60
2023-07-07T01:37:09.315Z,7.20
2023-07-07T01:38:09.290Z,6.20
2023-07-07T01:39:09.363Z,8.90
2023-07-07T01:40:09.281Z,6.60
2023-07-07T01:41:09.239Z,7.10
2023-07-07T01:42:09.240Z,6.90
2023-07-07T01:43:09.246Z,7.20
2023-07-07T01:44:09.245Z,9.10
2023-07-07T01:45:09.315Z,6.60
2023-07-07T01:46:09.327Z,5.80
2023-07-07T01:47:09.204Z,5.50
2023-07-07T01:48:09.205Z,4.90
2023-07-07T01:49:09.173Z,7.60
2023-07-07T01:50:09.170Z,7.50
2023-07-07T01:51:09.182Z,5.50
2023-07-07T01:52:09.237Z,7.40
2023-07-07T01:53:09.158Z,9.10
2023-07-07T01:54:09.145Z,8.60
2023-07-07T01:55:09.131Z,9.00
2023-07-07T01:56:09.195Z,8.90
2023-07-07T01:57:09.095Z,8.80
2023-07-07T01:58:09.066Z,8.30
2023-07-07T01:59:09.087Z,8.40
2023-07-07T02:00:09.081Z,8.80
2023-07-07T02:01:09.167Z,10.00
2023-07-07T02:02:09.065Z,10.00
2023-07-07T02:03:09.118Z,9.50
2023-07-07T02:04:09.090Z,8.00
2023-07-07T02:05:09.059Z,9.10
2023-07-07T02:06:09.008Z,9.30
2023-07-07T02:07:09.015Z,10.10
2023-07-07T02:08:09.070Z,8.90
2023-07-07T02:09:08.960Z,9.90
2023-07-07T02:10:09.054Z,7.90
2023-07-07T02:11:09.067Z,9.00
2023-07-07T02:12:08.958Z,7.80
2023-07-07T02:13:08.947Z,9.00
2023-07-07T02:14:08.988Z,9.70
2023-07-07T02:15:08.981Z,11.00
2023-07-07T02:16:08.983Z,8.90
2023-07-07T02:17:08.980Z,9.50
2023-07-07T02:18:08.956Z,7.30
2023-07-07T02:19:08.869Z,9.30
2023-07-07T02:20:08.895Z,7.80
2023-07-07T02:21:08.918Z,9.90
2023-07-07T02:22:08.852Z,9.40
2023-07-07T02:23:08.849Z,8.80
2023-07-07T02:24:08.842Z,7.90
2023-07-07T02:25:08.839Z,7.90
2023-07-07T02:26:08.802Z,8.70
2023-07-07T02:27:08.880Z,9.70
2023-07-07T02:28:08.766Z,8.80
2023-07-07T02:29:08.760Z,7.80
2023-07-07T02:30:08.782Z,9.50
2023-07-07T02:31:08.772Z,8.50
2023-07-07T02:32:08.805Z,9.20
2023-07-07T02:33:08.809Z,8.30
2023-07-07T02:34:08.738Z,8.10
2023-07-07T02:35:08.739Z,7.80
2023-07-07T02:36:08.702Z,8.20
2023-07-07T02:37:08.748Z,7.80
2023-07-07T02:38:08.636Z,8.20
2023-07-07T02:39:08.761Z,9.00
2023-07-07T02:40:08.662Z,8.60
2023-07-07T02:41:08.610Z,10.80
2023-07-07T02:42:08.592Z,8.80
2023-07-07T02:43:08.666Z,11.00
2023-07-07T02:44:08.576Z,9.10
2023-07-07T02:45:08.620Z,11.00
2023-07-07T02:46:08.601Z,10.10
2023-07-07T02:47:08.629Z,9.10
2023-07-07T02:48:08.789Z,10.30
2023-07-07T02:49:08.596Z,10.20
2023-07-07T02:50:08.554Z,10.40
2023-07-07T02:51:08.546Z,10.00
2023-07-07T02:52:08.497Z,9.90
2023-07-07T02:53:08.468Z,10.20
2023-07-07T02:54:08.474Z,10.10
2023-07-07T02:55:08.533Z,10.10
2023-07-07T02:56:08.449Z,12.00
2023-07-07T02:57:08.438Z,10.70
2023-07-07T02:58:08.407Z,10.00
2023-07-07T02:59:08.494Z,10.30
2023-07-07T03:00:08.385Z,10.70
2023-07-07T03:01:08.414Z,9.10
2023-07-07T03:02:08.377Z,10.50
2023-07-07T03:03:08.578Z,9.60
2023-07-07T03:04:08.365Z,9.70
2023-07-07T03:05:08.450Z,11.00
2023-07-07T03:06:08.352Z,12.80
2023-07-07T03:07:08.419Z,12.50
2023-07-07T03:08:08.304Z,9.50
2023-07-07T03:09:08.308Z,9.80
2023-07-07T03:10:08.397Z,9.50
2023-07-07T03:11:08.378Z,10.00
2023-07-07T03:12:08.341Z,9.40
2023-07-07T03:13:08.257Z,10.40
2023-07-07T03:14:08.311Z,9.20
2023-07-07T03:15:08.234Z,11.50
2023-07-07T03:16:08.350Z,9.30
2023-07-07T03:17:08.264Z,9.80
2023-07-07T03:18:08.188Z,10.00
2023-07-07T03:19:08.190Z,8.90
2023-07-07T03:20:08.200Z,11.30
2023-07-07T03:21:08.252Z,10.50
2023-07-07T03:22:08.156Z,10.80
2023-07-07T03:23:08.156Z,9.00
2023-07-07T03:24:08.164Z,9.80
2023-07-07T03:25:08.136Z,9.30
2023-07-07T03:26:08.112Z,9.40
2023-07-07T03:27:08.196Z,11.20
2023-07-07T03:28:08.091Z,10.70
2023-07-07T03:29:08.092Z,9.60
2023-07-07T03:30:08.092Z,10.20
2023-07-07T03:31:08.090Z,9.90
2023-07-07T03:32:08.069Z,10.20
2023-07-07T03:33:08.157Z,10.10
2023-07-07T03:34:08.043Z,10.00
2023-07-07T03:35:08.006Z,10.30
2023-07-07T03:36:08.029Z,9.10
2023-07-07T03:37:08.003Z,9.90
2023-07-07T03:38:07.986Z,10.10
2023-07-07T03:39:08.048Z,10.40
2023-07-07T03:40:08.000Z,9.80
2023-07-07T03:41:07.989Z,9.60
2023-07-07T03:42:07.977Z,10.60
2023-07-07T03:43:08.017Z,10.30
2023-07-07T03:44:07.999Z,10.90
2023-07-07T03:45:07.935Z,10.90
2023-07-07T03:46:07.950Z,10.60
2023-07-07T03:47:07.925Z,11.00
2023-07-07T03:48:08.035Z,11.90
2023-07-07T03:49:07.897Z,9.30
2023-07-07T03:50:07.959Z,9.90
2023-07-07T03:51:07.879Z,8.70
2023-07-07T03:52:07.840Z,9.80
2023-07-07T03:53:07.846Z,10.00
2023-07-07T03:54:07.854Z,9.80
2023-07-07T03:55:07.838Z,9.20
2023-07-07T03:56:07.888Z,10.90
2023-07-07T03:57:07.832Z,9.90
2023-07-07T03:58:07.783Z,10.10
2023-07-07T03:59:07.791Z,10.10
2023-07-07T04:00:07.775Z,9.80
2023-07-07T04:01:07.852Z,11.20
2023-07-07T04:02:07.739Z,10.10
2023-07-07T04:03:07.839Z,11.20
2023-07-07T04:04:07.883Z,13.00
2023-07-07T04:05:07.970Z,11.20
2023-07-07T04:06:07.788Z,10.80
2023-07-07T04:07:07.700Z,11.70
2023-07-07T04:08:07.717Z,12.80
2023-07-07T04:09:07.689Z,10.70
2023-07-07T04:10:07.754Z,10.30
2023-07-07T04:11:07.760Z,10.50
2023-07-07T04:12:07.656Z,10.60
2023-07-07T04:13:07.642Z,10.60
2023-07-07T04:14:07.794Z,10.40
2023-07-07T04:15:07.692Z,10.80
2023-07-07T04:16:07.655Z,10.70
2023-07-07T04:17:07.720Z,9.30
2023-07-07T04:18:07.687Z,10.30
2023-07-07T04:19:07.573Z,12.70
2023-07-07T04:20:07.604Z,8.10
2023-07-07T04:21:07.565Z,8.20
2023-07-07T04:22:07.544Z,7.40
2023-07-07T04:23:07.645Z,10.00
2023-07-07T04:24:07.539Z,9.50
2023-07-07T04:25:07.494Z,9.80
2023-07-07T04:26:07.569Z,10.10
2023-07-07T04:27:07.556Z,9.80
2023-07-07T04:28:07.460Z,10.20
2023-07-07T04:29:07.483Z,10.40
2023-07-07T04:30:08.451Z,10.30
2023-07-07T04:31:07.478Z,10.70
2023-07-07T04:32:07.525Z,9.90
2023-07-07T04:33:07.411Z,7.90
2023-07-07T04:34:07.395Z,11.30
2023-07-07T04:35:07.389Z,9.30
2023-07-07T04:36:07.388Z,8.70
2023-07-07T04:37:07.466Z,8.00
2023-07-07T04:38:07.398Z,9.50
2023-07-07T04:39:07.360Z,8.80
2023-07-07T04:40:07.367Z,9.10
2023-07-07T04:41:07.382Z,8.00
2023-07-07T04:42:07.404Z,8.00
2023-07-07T04:43:07.321Z,9.10
2023-07-07T04:44:07.307Z,8.30
2023-07-07T04:45:07.294Z,9.70
2023-07-07T04:46:07.348Z,7.00
2023-07-07T04:47:07.387Z,7.70
2023-07-07T04:48:07.307Z,7.60
2023-07-07T04:49:07.256Z,8.10
2023-07-07T04:50:07.230Z,10.60
2023-07-07T04:51:07.265Z,8.70
2023-07-07T04:52:07.209Z,7.30
2023-07-07T04:53:07.305Z,9.80
2023-07-07T04:54:07.201Z,8.60
2023-07-07T04:55:07.222Z,6.80
2023-07-07T04:56:07.193Z,7.90
2023-07-07T04:57:07.251Z,7.40
2023-07-07T04:58:07.167Z,7.70
2023-07-07T04:59:07.140Z,6.60
2023-07-07T05:00:07.136Z,8.00
2023-07-07T05:01:07.193Z,7.60
2023-07-07T05:02:07.212Z,8.10
2023-07-07T05:03:07.104Z,7.30
2023-07-07T05:04:07.220Z,6.70
2023-07-07T05:05:07.184Z,7.60
2023-07-07T05:06:07.082Z,6.90
2023-07-07T05:07:07.057Z,6.80
2023-07-07T05:08:09.429Z,7.10
2023-07-07T05:09:07.061Z,6.40
2023-07-07T05:10:07.116Z,6.40
2023-07-07T05:11:07.094Z,6.30
2023-07-07T05:12:06.991Z,6.90
2023-07-07T05:13:07.050Z,6.90
2023-07-07T05:14:07.161Z,7.40
2023-07-07T05:15:07.000Z,7.20
2023-07-07T05:16:07.090Z,7.40
2023-07-07T05:17:06.974Z,6.40
2023-07-07T05:18:06.997Z,7.50
2023-07-07T05:19:06.944Z,7.10
2023-07-07T05:20:06.963Z,7.60
2023-07-07T05:21:07.399Z,6.90
2023-07-07T05:22:06.913Z,6.80
2023-07-07T05:23:06.923Z,5.30
2023-07-07T05:24:06.893Z,7.00
2023-07-07T05:25:06.891Z,6.10
2023-07-07T05:26:06.869Z,6.00
2023-07-07T05:27:06.940Z,5.80
2023-07-07T05:28:06.852Z,5.60
2023-07-07T05:29:06.869Z,6.40
2023-07-07T05:30:06.814Z,5.80
2023-07-07T05:31:06.822Z,6.40
2023-07-07T05:32:06.884Z,7.70
2023-07-07T05:33:06.892Z,8.20
2023-07-07T05:34:06.766Z,6.40
2023-07-07T05:35:06.790Z,6.10
2023-07-07T05:36:06.765Z,7.00
2023-07-07T05:37:06.732Z,5.20
2023-07-07T05:38:06.825Z,8.40
2023-07-07T05:39:06.722Z,6.10
2023-07-07T05:40:06.727Z,7.30
2023-07-07T05:41:06.693Z,5.20
2023-07-07T05:42:06.688Z,5.50
2023-07-07T05:43:06.704Z,6.80
2023-07-07T05:44:06.762Z,4.90
2023-07-07T05:45:06.763Z,8.00
2023-07-07T05:46:06.771Z,5.30
2023-07-07T05:47:06.646Z,6.30
2023-07-07T05:48:06.786Z,4.50
2023-07-07T05:49:06.694Z,6.20
2023-07-07T05:50:06.549Z,5.60
2023-07-07T05:51:06.603Z,4.20
2023-07-07T05:52:06.599Z,5.40
2023-07-07T05:53:06.594Z,8.60
2023-07-07T05:54:06.662Z,6.80
2023-07-07T05:55:06.553Z,4.90
2023-07-07T05:56:06.718Z,5.20
2023-07-07T05:57:06.648Z,7.40
2023-07-07T05:58:06.574Z,5.90
2023-07-07T05:59:06.586Z,5.40
2023-07-07T06:00:06.517Z,6.90
2023-07-07T06:01:06.569Z,7.10
2023-07-07T06:02:06.588Z,8.40
2023-07-07T06:03:06.582Z,5.20
2023-07-07T06:04:06.545Z,5.70
2023-07-07T06:05:06.552Z,6.60
2023-07-07T06:06:06.497Z,5.80
2023-07-07T06:07:06.462Z,5.20
2023-07-07T06:08:06.549Z,5.90
2023-07-07T06:09:06.465Z,6.20
2023-07-07T06:10:06.408Z,5.50
2023-07-07T06:11:06.413Z,6.30
2023-07-07T06:12:06.383Z,5.40
2023-07-07T06:13:06.453Z,7.00
2023-07-07T06:14:06.405Z,6.00
2023-07-07T06:15:06.351Z,6.20
2023-07-07T06:16:06.441Z,6.20
2023-07-07T06:17:06.334Z,6.10
2023-07-07T06:18:06.449Z,5.60
2023-07-07T06:19:06.320Z,5.40
2023-07-07T06:20:06.328Z,5.10
2023-07-07T06:21:06.320Z,5.10
2023-07-07T06:22:06.309Z,6.60
2023-07-07T06:23:06.289Z,5.50
2023-07-07T06:24:06.352Z,4.90
2023-07-07T06:25:06.274Z,5.30
2023-07-07T06:26:06.262Z,6.00
2023-07-07T06:27:06.232Z,5.20
2023-07-07T06:28:06.249Z,6.10
2023-07-07T06:29:06.310Z,7.10
2023-07-07T06:30:06.198Z,8.10
2023-07-07T06:31:06.291Z,4.40
2023-07-07T06:32:06.179Z,5.10
2023-07-07T06:33:06.183Z,6.10
2023-07-07T06:34:06.237Z,7.20
2023-07-07T06:35:06.177Z,5.10
2023-07-07T06:36:06.139Z,4.60
2023-07-07T06:37:06.128Z,5.60
2023-07-07T06:38:06.127Z,5.90
2023-07-07T06:39:06.286Z,5.00
2023-07-07T06:40:06.084Z,4.90
2023-07-07T06:41:06.187Z,6.20
2023-07-07T06:42:06.069Z,5.00
2023-07-07T06:43:06.049Z,5.60
2023-07-07T06:44:06.066Z,5.80
2023-07-07T06:45:06.069Z,5.30
2023-07-07T06:46:06.133Z,5.50
2023-07-07T06:47:06.074Z,5.30
2023-07-07T06:48:06.136Z,5.10
2023-07-07T06:49:06.021Z,6.60
2023-07-07T06:50:05.997Z,5.70
2023-07-07T06:51:06.053Z,5.10
2023-07-07T06:52:06.026Z,6.60
2023-07-07T06:53:05.957Z,6.80
2023-07-07T06:54:05.945Z,6.30
2023-07-07T06:55:05.973Z,5.20
2023-07-07T06:56:06.029Z,4.40
2023-07-07T06:57:05.945Z,6.10
2023-07-07T06:58:05.905Z,4.80
2023-07-07T06:59:06.012Z,5.90
2023-07-07T07:00:05.894Z,6.00
2023-07-07T07:01:06.019Z,4.20
2023-07-07T07:02:05.939Z,3.50
2023-07-07T07:03:05.975Z,4.50
2023-07-07T07:04:06.048Z,5.20
2023-07-07T07:05:05.847Z,5.40
2023-07-07T07:06:05.846Z,4.30
2023-07-07T07:07:05.859Z,5.20
2023-07-07T07:08:05.897Z,5.50
2023-07-07T07:09:05.869Z,6.10
2023-07-07T07:10:05.800Z,5.50
2023-07-07T07:11:05.777Z,5.00
2023-07-07T07:12:05.756Z,7.30
2023-07-07T07:13:05.854Z,5.50
2023-07-07T07:14:05.839Z,4.40
2023-07-07T07:15:05.778Z,4.90
2023-07-07T07:16:05.744Z,6.00
2023-07-07T07:17:05.791Z,4.90
2023-07-07T07:18:05.912Z,4.80
2023-07-07T07:19:05.709Z,6.70
2023-07-07T07:20:05.778Z,4.60
2023-07-07T07:21:05.700Z,5.60
2023-07-07T07:22:05.693Z,4.50
2023-07-07T07:23:05.678Z,5.20
2023-07-07T07:24:05.760Z,6.10
2023-07-07T07:25:05.675Z,7.00
2023-07-07T07:26:05.651Z,4.90
2023-07-07T07:27:05.640Z,5.00
2023-07-07T07:28:05.709Z,5.80
2023-07-07T07:29:05.609Z,6.80
2023-07-07T07:30:05.619Z,6.40
2023-07-07T07:31:05.615Z,5.40
2023-07-07T07:32:05.589Z,6.10
2023-07-07T07:33:05.584Z,5.10
2023-07-07T07:34:05.631Z,6.50
2023-07-07T07:35:05.588Z,4.20
2023-07-07T07:36:05.548Z,4.80
2023-07-07T07:37:05.519Z,6.20
2023-07-07T07:38:05.533Z,5.10
2023-07-07T07:39:05.600Z,6.10
2023-07-07T07:40:05.495Z,5.30
2023-07-07T07:41:05.550Z,6.90
2023-07-07T07:42:05.473Z,5.20
2023-07-07T07:43:05.483Z,6.10
2023-07-07T07:44:05.444Z,2.70
2023-07-07T07:45:05.478Z,6.10
2023-07-07T07:46:05.520Z,5.30
2023-07-07T07:47:05.474Z,5.10
2023-07-07T07:48:05.449Z,5.70
2023-07-07T07:49:05.404Z,7.40
2023-07-07T07:50:05.399Z,5.00
2023-07-07T07:51:13.639Z,4.90
2023-07-07T07:52:05.374Z,5.80
2023-07-07T07:53:05.438Z,4.10
2023-07-07T07:54:05.342Z,4.90
2023-07-07T07:55:05.356Z,5.60
2023-07-07T07:56:05.424Z,5.20
2023-07-07T07:57:05.408Z,4.10
2023-07-07T07:58:05.322Z,6.00
2023-07-07T07:59:07.279Z,6.80
2023-07-07T08:00:05.292Z,5.60
2023-07-07T08:01:05.290Z,4.70
2023-07-07T08:02:05.394Z,5.00
2023-07-07T08:03:05.425Z,3.90
2023-07-07T08:04:05.317Z,4.20
2023-07-07T08:05:05.261Z,5.90
2023-07-07T08:06:05.236Z,5.80
2023-07-07T08:07:05.311Z,3.90
2023-07-07T08:08:05.222Z,4.50
2023-07-07T08:09:05.227Z,4.90
2023-07-07T08:10:05.320Z,4.70
2023-07-07T08:11:11.060Z,4.10
2023-07-07T08:12:05.177Z,6.80
2023-07-07T08:13:05.243Z,4.00
2023-07-07T08:14:05.205Z,4.00
2023-07-07T08:15:05.200Z,4.40
2023-07-07T08:16:05.143Z,4.30
2023-07-07T08:17:05.279Z,5.90
2023-07-07T08:18:05.247Z,4.60
2023-07-07T08:20:05.085Z,4.50
2023-07-07T08:21:05.087Z,5.50
2023-07-07T08:22:05.071Z,5.20
2023-07-07T08:23:05.142Z,4.60
2023-07-07T08:24:05.123Z,4.20
2023-07-07T08:25:07.516Z,3.60
2023-07-07T08:28:08.303Z,4.10
2023-07-07T08:29:05.028Z,5.50
2023-07-07T08:30:05.099Z,4.90
2023-07-07T08:31:05.212Z,4.90
2023-07-07T08:32:04.961Z,4.20
2023-07-07T08:33:04.961Z,3.90
2023-07-07T08:34:04.968Z,5.10
2023-07-07T08:35:05.023Z,6.20
2023-07-07T08:36:04.945Z,5.30
2023-07-07T08:37:04.908Z,4.90
2023-07-07T08:38:04.912Z,2.70
2023-07-07T08:39:04.935Z,4.20
2023-07-07T08:40:04.972Z,5.50
2023-07-07T08:41:04.964Z,4.60
2023-07-07T08:42:04.883Z,4.80
2023-07-07T08:43:04.891Z,2.80
2023-07-07T08:44:04.857Z,3.40
2023-07-07T08:45:04.837Z,3.20
2023-07-07T08:46:04.832Z,2.80
2023-07-07T08:47:04.896Z,5.30
2023-07-07T08:48:04.865Z,5.60
2023-07-07T08:49:04.794Z,4.00
2023-07-07T08:50:15.314Z,4.40
2023-07-07T08:51:04.872Z,3.50
2023-07-07T08:52:04.778Z,3.30
2023-07-07T08:53:04.774Z,4.10
2023-07-07T08:54:13.478Z,4.90
2023-07-07T08:55:04.729Z,3.00
2023-07-07T08:56:04.757Z,4.30
2023-07-07T08:57:04.806Z,3.40
2023-07-07T08:58:04.894Z,3.40
2023-07-07T08:59:04.717Z,4.60
2023-07-07T09:00:04.697Z,4.50
2023-07-07T09:01:04.697Z,3.70
2023-07-07T09:02:04.731Z,4.80
2023-07-07T09:03:04.777Z,3.60
2023-07-07T09:04:04.839Z,3.00
2023-07-07T09:05:04.771Z,4.50
2023-07-07T09:06:04.662Z,4.40
2023-07-07T09:07:04.641Z,3.50
2023-07-07T09:08:04.678Z,4.60
2023-07-07T09:09:04.610Z,4.10
2023-07-07T09:10:04.624Z,4.80
2023-07-07T09:11:04.582Z,5.00
2023-07-07T09:12:04.660Z,3.70
2023-07-07T09:13:04.579Z,3.50
2023-07-07T09:14:04.656Z,4.30
2023-07-07T09:15:04.579Z,3.50
2023-07-07T09:16:04.602Z,4.00
2023-07-07T09:17:04.622Z,4.20
2023-07-07T09:18:04.535Z,5.60
2023-07-07T09:19:04.537Z,5.30
2023-07-07T09:20:04.516Z,3.80
2023-07-07T09:21:04.512Z,4.00
2023-07-07T09:22:04.474Z,3.00
2023-07-07T09:23:04.603Z,4.10
2023-07-07T09:24:04.577Z,2.90
2023-07-07T09:25:04.513Z,4.10
2023-07-07T09:26:04.508Z,3.70
2023-07-07T09:27:04.451Z,3.10
2023-07-07T09:28:06.466Z,4.50
2023-07-07T09:29:04.501Z,5.10
2023-07-07T09:30:04.488Z,4.70
2023-07-07T09:31:04.412Z,3.40
2023-07-07T09:32:04.523Z,4.70
2023-07-07T09:33:04.569Z,5.10
2023-07-07T09:34:04.460Z,4.40
2023-07-07T09:35:04.348Z,4.30
2023-07-07T09:36:04.367Z,3.60
2023-07-07T09:37:04.363Z,3.30
2023-07-07T09:38:04.357Z,3.60
2023-07-07T09:39:04.445Z,5.50
2023-07-07T09:40:04.307Z,4.00
2023-07-07T09:41:04.317Z,5.60
2023-07-07T09:42:04.318Z,3.60
2023-07-07T09:43:04.279Z,6.00
2023-07-07T09:44:04.380Z,4.80
2023-07-07T09:45:04.263Z,3.70
2023-07-07T09:46:04.305Z,4.60
2023-07-07T09:47:04.342Z,4.50
2023-07-07T09:48:04.311Z,3.80
2023-07-07T09:49:04.241Z,3.30
2023-07-07T09:50:04.317Z,3.20
2023-07-07T09:51:04.329Z,5.30
2023-07-07T09:52:04.200Z,5.40
2023-07-07T09:53:16.849Z,5.00
2023-07-07T09:54:04.217Z,6.20
2023-07-07T09:55:04.254Z,3.90
2023-07-07T09:56:04.185Z,3.80
2023-07-07T09:57:04.176Z,4.50
2023-07-07T09:58:04.207Z,4.00
2023-07-07T09:59:04.386Z,3.70
2023-07-07T10:00:04.215Z,5.40
2023-07-07T10:01:04.177Z,4.80
2023-07-07T10:02:04.171Z,4.30
2023-07-07T10:03:04.174Z,4.00
2023-07-07T10:04:04.176Z,5.10
2023-07-07T10:05:04.165Z,4.50
2023-07-07T10:06:04.282Z,4.00
2023-07-07T10:07:04.102Z,4.20
2023-07-07T10:08:04.043Z,5.10
2023-07-07T10:09:04.066Z,4.70
2023-07-07T10:10:04.041Z,4.50
2023-07-07T10:11:27.021Z,5.20
2023-07-07T10:13:04.014Z,5.40
2023-07-07T10:14:04.197Z,5.00
2023-07-07T10:15:04.024Z,4.80
2023-07-07T10:16:04.066Z,4.20
2023-07-07T10:17:04.037Z,4.60
2023-07-07T10:18:04.015Z,3.10
2023-07-07T10:19:03.971Z,4.00
2023-07-07T10:20:03.956Z,4.80
2023-07-07T10:21:03.978Z,5.00
2023-07-07T10:22:03.988Z,4.30
2023-07-07T10:23:04.006Z,3.80
2023-07-07T10:24:05.792Z,4.10
2023-07-07T10:25:03.924Z,3.20
2023-07-07T10:26:03.869Z,6.70
2023-07-07T10:27:03.860Z,4.40
2023-07-07T10:28:03.954Z,4.90
2023-07-07T10:29:03.845Z,4.20
2023-07-07T10:30:03.840Z,3.90
2023-07-07T10:31:03.944Z,4.80
2023-07-07T10:32:03.916Z,4.10
2023-07-07T10:33:03.958Z,4.30
2023-07-07T10:34:03.804Z,4.60
2023-07-07T10:35:03.815Z,4.30
2023-07-07T10:36:06.094Z,3.80
2023-07-07T10:37:03.792Z,4.60
2023-07-07T10:38:03.847Z,5.60
2023-07-07T10:39:03.779Z,5.20
2023-07-07T10:40:03.759Z,4.50
2023-07-07T10:41:03.831Z,4.00
2023-07-07T10:42:03.725Z,3.50
2023-07-07T10:43:03.777Z,3.70
2023-07-07T10:44:03.808Z,4.20
2023-07-07T10:45:03.727Z,3.70
2023-07-07T10:46:03.810Z,3.80
2023-07-07T10:47:13.017Z,4.30
2023-07-07T10:48:05.413Z,3.50
2023-07-07T10:49:03.663Z,3.40
2023-07-07T10:50:03.649Z,4.30
2023-07-07T10:51:03.879Z,4.70
2023-07-07T10:52:03.749Z,4.60
2023-07-07T10:54:05.053Z,4.70
2023-07-07T10:55:03.583Z,3.70
2023-07-07T10:56:03.673Z,4.10
2023-07-07T10:57:03.645Z,3.50
2023-07-07T10:58:03.658Z,5.00
2023-07-07T10:59:03.554Z,5.70
2023-07-07T11:00:03.675Z,3.70
2023-07-07T11:01:03.940Z,5.30
2023-07-07T11:02:03.672Z,4.30
2023-07-07T11:03:04.877Z,3.50
2023-07-07T11:04:03.601Z,4.10
2023-07-07T11:05:03.526Z,3.50
2023-07-07T11:06:04.831Z,4.60
2023-07-07T11:07:03.486Z,4.90
2023-07-07T11:08:03.474Z,4.50
2023-07-07T11:09:03.471Z,6.10
2023-07-07T11:10:03.629Z,4.60
2023-07-07T11:11:03.574Z,3.30
2023-07-07T11:12:03.445Z,4.10
2023-07-07T11:13:03.506Z,5.30
2023-07-07T11:14:03.559Z,4.70
2023-07-07T11:15:03.404Z,4.00
2023-07-07T11:16:03.486Z,3.70
2023-07-07T11:17:03.515Z,4.70
2023-07-07T11:18:03.455Z,3.70
2023-07-07T11:19:03.426Z,4.60
2023-07-07T11:20:03.348Z,4.00
2023-07-07T11:21:03.367Z,3.70
2023-07-07T11:22:03.317Z,4.20
2023-07-07T11:23:03.417Z,4.10
2023-07-07T11:24:03.388Z,3.50
2023-07-07T11:25:03.327Z,5.00
2023-07-07T11:26:03.278Z,4.40
2023-07-07T11:27:03.275Z,3.90
2023-07-07T11:28:03.319Z,4.00
2023-07-07T11:29:03.331Z,4.80
2023-07-07T11:30:03.255Z,4.90
2023-07-07T11:31:03.323Z,4.40
2023-07-07T11:32:03.230Z,4.20
2023-07-07T11:33:03.295Z,4.40
2023-07-07T11:34:03.200Z,4.40
2023-07-07T11:35:03.268Z,4.60
2023-07-07T11:36:03.172Z,2.90
2023-07-07T11:37:03.155Z,3.50
2023-07-07T11:38:03.179Z,4.00
2023-07-07T11:39:03.176Z,3.90
2023-07-07T11:40:03.225Z,3.00
2023-07-07T11:41:03.191Z,3.90
2023-07-07T11:42:03.109Z,5.70
2023-07-07T11:43:03.145Z,3.70
2023-07-07T11:44:03.191Z,5.10
2023-07-07T11:45:03.086Z,3.40
2023-07-07T11:46:03.167Z,4.50
2023-07-07T11:47:03.153Z,2.90
2023-07-07T11:48:03.066Z,5.20
2023-07-07T11:49:03.042Z,4.30
2023-07-07T11:50:03.035Z,3.10
2023-07-07T11:51:03.180Z,3.60
2023-07-07T11:52:03.031Z,3.20
2023-07-07T11:53:03.019Z,4.40
2023-07-07T11:54:02.983Z,5.20
2023-07-07T11:55:02.963Z,3.70
2023-07-07T11:56:03.053Z,4.00
2023-07-07T11:57:02.953Z,4.50
2023-07-07T11:58:02.954Z,3.70
2023-07-07T11:59:02.928Z,4.00
2023-07-07T12:00:02.930Z,6.40
2023-07-07T12:01:02.935Z,3.60
2023-07-07T12:02:02.963Z,3.00
2023-07-07T12:03:03.059Z,5.70
2023-07-07T12:04:03.031Z,3.90
2023-07-07T12:05:03.127Z,4.50
2023-07-07T12:06:03.277Z,3.80
2023-07-07T12:07:02.940Z,4.50
2023-07-07T12:08:02.835Z,3.50
2023-07-07T12:09:02.838Z,4.30
2023-07-07T12:10:02.816Z,4.40
2023-07-07T12:11:02.811Z,4.10
2023-07-07T12:12:02.899Z,3.80
2023-07-07T12:13:02.799Z,3.40
2023-07-07T12:14:02.923Z,3.90
2023-07-07T12:15:04.077Z,3.40
2023-07-07T12:16:02.757Z,6.50
2023-07-07T12:17:02.789Z,4.40
2023-07-07T12:18:02.877Z,5.40
2023-07-07T12:19:02.751Z,3.50
2023-07-07T12:20:02.725Z,5.80
2023-07-07T12:21:02.742Z,4.40
2023-07-07T12:22:02.720Z,4.30
2023-07-07T12:23:02.779Z,4.50
2023-07-07T12:24:02.694Z,5.10
2023-07-07T12:25:02.774Z,3.80
2023-07-07T12:26:02.833Z,4.90
2023-07-07T12:27:02.682Z,3.60
2023-07-07T12:28:02.658Z,4.80
2023-07-07T12:29:02.721Z,5.20
2023-07-07T12:30:02.635Z,5.60
2023-07-07T12:31:02.654Z,3.30
2023-07-07T12:32:02.630Z,4.80
2023-07-07T12:33:02.709Z,3.80
2023-07-07T12:34:02.586Z,3.70
2023-07-07T12:35:02.616Z,4.80
2023-07-07T12:36:02.562Z,4.40
2023-07-07T12:37:02.602Z,3.40
2023-07-07T12:38:02.650Z,3.30
2023-07-07T12:39:02.537Z,4.50
2023-07-07T12:40:02.523Z,3.20
2023-07-07T12:41:02.603Z,5.00
2023-07-07T12:42:02.507Z,4.10
2023-07-07T12:43:02.606Z,2.90
2023-07-07T12:44:02.486Z,3.50
2023-07-07T12:45:02.504Z,3.30
2023-07-07T12:46:02.659Z,4.30
2023-07-07T12:47:02.486Z,3.50
2023-07-07T12:48:02.562Z,4.10
2023-07-07T12:49:02.681Z,4.30
2023-07-07T12:50:02.435Z,2.80
2023-07-07T12:51:02.496Z,4.20
2023-07-07T12:52:02.401Z,4.00
2023-07-07T12:53:02.427Z,4.00
2023-07-07T12:54:02.438Z,4.20
2023-07-07T12:55:02.393Z,4.50
2023-07-07T12:56:02.471Z,3.50
2023-07-07T12:57:02.447Z,4.00
2023-07-07T12:58:02.381Z,2.50
2023-07-07T12:59:02.351Z,5.50
2023-07-07T13:00:02.354Z,4.10
2023-07-07T13:01:02.359Z,4.70
2023-07-07T13:02:02.375Z,5.60
2023-07-07T13:03:02.349Z,4.20
2023-07-07T13:04:02.395Z,4.70
2023-07-07T13:05:02.285Z,4.60
2023-07-07T13:06:02.602Z,4.50
2023-07-07T13:07:02.258Z,3.70
2023-07-07T13:08:02.326Z,3.90
2023-07-07T13:09:02.255Z,4.80
2023-07-07T13:10:02.266Z,4.60
2023-07-07T13:11:02.246Z,4.10
2023-07-07T13:12:02.222Z,3.70
2023-07-07T13:13:02.316Z,5.40
2023-07-07T13:14:02.263Z,3.40
2023-07-07T13:15:02.288Z,4.80
2023-07-07T13:16:02.250Z,5.40
2023-07-07T13:17:02.298Z,4.30
2023-07-07T13:18:02.158Z,2.60
2023-07-07T13:19:02.157Z,6.30
2023-07-07T13:20:02.250Z,4.40